Time;durP1;ratioP1;P1;durP2;ratioP2;P2;SDS_P1;SDS_P2;PMS_P1;PMS_P2;Temp;Humidity;BMP_temperature;BMP_pressure;BME280_temperature;BME280_humidity;BME280_pressure;Samples;Min_cycle;Max_cycle;Signal;HPM_P1;HPM_P2
2023/05/30 00:00:36;;;;;;;4.32;1.77;;;;;;;17.39;41.18;100537.59;5085540;28;20201;-59
2023/05/30 00:03:04;;;;;;;3.33;1.98;;;;;;;17.42;41.34;100538.44;5085011;28;20216;-59
2023/05/30 00:05:34;;;;;;;3.13;1.40;;;;;;;17.41;41.21;100532.34;5086152;28;20201;-60
2023/05/30 00:08:02;;;;;;;4.07;1.73;;;;;;;17.45;41.22;100536.53;5088694;28;20211;-60
2023/05/30 00:10:30;;;;;;;4.55;1.67;;;;;;;17.44;41.11;100532.25;5088851;28;20201;-62
2023/05/30 00:12:59;;;;;;;3.45;1.77;;;;;;;17.46;41.44;100532.22;5083802;28;20207;-60
2023/05/30 00:15:28;;;;;;;5.50;2.22;;;;;;;17.43;41.37;100529.69;5070267;28;20273;-59
2023/05/30 00:17:57;;;;;;;5.40;1.90;;;;;;;17.41;41.59;100536.69;5076163;28;20578;-62
2023/05/30 00:20:25;;;;;;;3.97;2.35;;;;;;;17.35;41.44;100530.78;5076822;28;20213;-59
2023/05/30 00:22:54;;;;;;;7.35;2.58;;;;;;;17.31;41.41;100530.94;5070102;28;20209;-62
2023/05/30 00:25:22;;;;;;;5.93;2.40;;;;;;;17.26;41.08;100528.47;5086308;28;20212;-61
2023/05/30 00:27:50;;;;;;;7.13;1.88;;;;;;;17.23;40.88;100528.59;5089904;28;20211;-61
2023/05/30 00:30:19;;;;;;;3.60;1.73;;;;;;;17.15;40.86;100531.41;5088956;28;20207;-60
2023/05/30 00:32:47;;;;;;;7.15;2.00;;;;;;;17.10;41.17;100528.09;5087600;28;20232;-59
2023/05/30 00:35:15;;;;;;;7.00;1.95;;;;;;;17.09;41.15;100523.81;5077693;28;20212;-59
2023/05/30 00:37:44;;;;;;;2.47;1.40;;;;;;;17.14;41.14;100534.06;5089713;28;20251;-62
2023/05/30 00:40:14;;;;;;;3.90;1.50;;;;;;;17.20;40.67;100527.84;5077038;28;20209;-61
2023/05/30 00:42:42;;;;;;;4.63;1.90;;;;;;;17.18;40.72;100520.03;5081319;28;20201;-60
2023/05/30 00:45:11;;;;;;;3.53;1.95;;;;;;;17.18;40.37;100525.25;5083291;28;20216;-59
2023/05/30 00:47:40;;;;;;;3.85;1.50;;;;;;;17.19;40.60;100526.09;5081195;28;20671;-58
2023/05/30 00:50:09;;;;;;;3.30;1.65;;;;;;;17.23;40.32;100523.38;5082241;28;20296;-60
2023/05/30 00:52:37;;;;;;;4.25;1.67;;;;;;;17.23;40.10;100518.19;5092093;28;20193;-58
2023/05/30 00:55:05;;;;;;;3.85;1.60;;;;;;;17.24;40.34;100525.06;5089281;28;20219;-59
2023/05/30 00:57:35;;;;;;;3.33;1.67;;;;;;;17.21;39.85;100524.31;5078334;28;20201;-62
2023/05/30 01:00:04;;;;;;;5.05;2.00;;;;;;;17.19;39.97;100526.09;5085009;28;20296;-59
2023/05/30 01:02:34;;;;;;;4.43;1.65;;;;;;;17.19;39.98;100531.31;5086633;28;20193;-60
2023/05/30 01:05:02;;;;;;;4.20;1.98;;;;;;;17.17;39.88;100523.56;5076050;28;20231;-63
2023/05/30 01:07:31;;;;;;;5.45;1.73;;;;;;;17.21;39.88;100525.16;5083611;28;20648;-59
2023/05/30 01:10:00;;;;;;;4.20;1.83;;;;;;;17.25;39.93;100531.97;5078448;28;20249;-60
2023/05/30 01:12:34;;;;;;;3.10;1.73;;;;;;;17.27;39.97;100535.41;5091439;28;20208;-60
2023/05/30 01:15:12;;;;;;;3.00;1.38;;;;;;;17.29;40.04;100535.34;5063730;28;20201;-61
2023/05/30 01:17:53;;;;;;;3.30;1.73;;;;;;;17.35;40.06;100538.63;5089019;28;20304;-59
2023/05/30 01:20:24;;;;;;;4.80;1.90;;;;;;;17.37;39.73;100543.75;5078225;28;20681;-59
2023/05/30 01:23:08;;;;;;;4.38;1.85;;;;;;;17.33;39.44;100543.00;5079056;28;20227;-59
2023/05/30 01:25:53;;;;;;;3.40;1.30;;;;;;;17.28;39.36;100534.50;5083120;28;20274;-60
2023/05/30 01:28:28;;;;;;;3.40;1.50;;;;;;;17.21;39.08;100539.94;5081377;28;20292;-60
2023/05/30 01:30:59;;;;;;;5.45;1.70;;;;;;;17.17;39.07;100541.78;5074342;28;20224;-59
2023/05/30 01:33:28;;;;;;;3.17;1.42;;;;;;;17.11;38.61;100547.19;5091114;28;20246;-63
2023/05/30 01:35:56;;;;;;;7.75;1.42;;;;;;;16.97;38.88;100547.59;5081347;28;20223;-59
2023/05/30 01:38:24;;;;;;;5.63;1.48;;;;;;;16.88;39.39;100556.53;5085725;28;20204;-60
2023/05/30 01:40:56;;;;;;;2.95;1.50;;;;;;;16.89;39.24;100549.56;5090437;28;20215;-59
2023/05/30 01:43:40;;;;;;;3.97;1.70;;;;;;;16.89;39.58;100550.41;5092436;28;20539;-60
2023/05/30 01:46:17;;;;;;;3.55;1.40;;;;;;;16.86;39.27;100553.13;5085175;28;20217;-58
2023/05/30 01:48:55;;;;;;;6.20;1.70;;;;;;;16.86;39.93;100563.53;5091778;28;20317;-59
2023/05/30 01:51:28;;;;;;;2.67;1.65;;;;;;;16.91;39.65;100563.41;5088297;28;20204;-63
2023/05/30 01:53:59;;;;;;;3.83;1.73;;;;;;;16.94;39.83;100570.25;5088896;28;20570;-59
2023/05/30 01:56:28;;;;;;;4.43;1.70;;;;;;;16.94;39.94;100562.44;5089978;28;20605;-61
2023/05/30 01:58:59;;;;;;;2.75;1.40;;;;;;;16.96;40.00;100569.31;5092374;28;20216;-60
2023/05/30 02:01:29;;;;;;;2.95;1.25;;;;;;;16.97;40.07;100564.97;5089076;28;20655;-60
2023/05/30 02:03:57;;;;;;;4.20;1.50;;;;;;;16.96;39.86;100568.47;5087785;28;20273;-59
2023/05/30 02:06:25;;;;;;;4.60;1.58;;;;;;;16.98;40.05;100579.69;5087531;28;20231;-60
2023/05/30 02:08:53;;;;;;;5.38;1.40;;;;;;;16.93;39.99;100563.34;5085157;28;20212;-60
2023/05/30 02:11:21;;;;;;;4.93;1.83;;;;;;;16.84;40.39;100561.88;5081223;28;20664;-59
2023/05/30 02:13:50;;;;;;;2.80;1.65;;;;;;;16.74;40.51;100569.09;5087295;28;20196;-58
2023/05/30 02:16:19;;;;;;;4.28;1.88;;;;;;;16.64;40.86;100565.00;5090237;28;20721;-59
2023/05/30 02:18:48;;;;;;;3.80;1.75;;;;;;;16.64;40.90;100570.19;5084353;28;20605;-59
2023/05/30 02:21:16;;;;;;;4.38;1.65;;;;;;;16.64;40.99;100573.69;5089410;28;20215;-60
2023/05/30 02:23:43;;;;;;;3.28;1.45;;;;;;;16.69;41.01;100573.53;5089446;28;20200;-58
2023/05/30 02:26:11;;;;;;;6.05;1.80;;;;;;;16.69;41.03;100567.50;5090416;28;20618;-60
2023/05/30 02:28:39;;;;;;;3.28;1.38;;;;;;;16.70;40.47;100574.41;5089953;28;20545;-60
2023/05/30 02:31:07;;;;;;;6.85;1.80;;;;;;;16.68;40.89;100579.66;5091518;28;20571;-61
2023/05/30 02:33:36;;;;;;;5.13;1.80;;;;;;;16.61;40.87;100578.13;5083456;28;20240;-61
2023/05/30 02:36:05;;;;;;;3.17;1.63;;;;;;;16.55;41.12;100573.94;5082952;28;20193;-62
2023/05/30 02:38:33;;;;;;;5.03;1.80;;;;;;;16.46;41.32;100575.91;5088033;28;20275;-60
2023/05/30 02:41:01;;;;;;;7.00;2.08;;;;;;;16.42;41.86;100573.41;5086162;28;20219;-60
2023/05/30 02:43:29;;;;;;;2.72;1.63;;;;;;;16.45;41.38;100579.41;5089625;28;20855;-59
2023/05/30 02:45:57;;;;;;;3.67;1.77;;;;;;;16.48;41.50;100579.34;5085692;28;20762;-67
2023/05/30 02:48:25;;;;;;;4.53;1.90;;;;;;;16.50;41.49;100585.38;5081802;28;20214;-61
2023/05/30 02:50:54;;;;;;;5.32;1.58;;;;;;;16.53;41.82;100593.06;5086650;28;20205;-61
2023/05/30 02:53:23;;;;;;;4.07;1.67;;;;;;;16.54;41.52;100589.59;5086107;28;20262;-61
2023/05/30 02:55:51;;;;;;;4.18;1.63;;;;;;;16.54;41.29;100592.19;5077729;28;20684;-60
2023/05/30 02:58:18;;;;;;;5.22;1.58;;;;;;;16.50;41.72;100586.22;5089578;28;20204;-59
2023/05/30 03:00:47;;;;;;;4.70;1.98;;;;;;;16.51;41.92;100579.25;5088518;28;20205;-61
2023/05/30 03:03:15;;;;;;;2.38;1.42;;;;;;;16.52;41.75;100586.16;5084245;28;20229;-60
2023/05/30 03:05:46;;;;;;;5.07;1.85;;;;;;;16.49;41.97;100587.09;5078923;28;20310;-61
2023/05/30 03:08:16;;;;;;;5.65;1.75;;;;;;;16.40;42.13;100592.56;5083400;28;20378;-61
2023/05/30 03:10:53;;;;;;;6.13;1.60;;;;;;;16.34;42.47;100590.09;5086961;28;20210;-61
2023/05/30 03:13:21;;;;;;;5.32;1.80;;;;;;;16.26;42.71;100595.50;5090997;28;20288;-60
2023/05/30 03:15:49;;;;;;;3.33;1.52;;;;;;;16.25;42.70;100592.97;5087887;28;20380;-61
2023/05/30 03:18:17;;;;;;;3.42;1.40;;;;;;;16.23;43.04;100592.13;5090972;28;20253;-62
2023/05/30 03:20:45;;;;;;;5.47;2.70;;;;;;;16.21;43.33;100591.34;5088884;28;20211;-61
2023/05/30 03:23:13;;;;;;;3.17;1.63;;;;;;;16.21;43.44;100594.78;5087675;28;20205;-61
2023/05/30 03:25:42;;;;;;;2.10;1.35;;;;;;;16.23;43.41;100585.19;5089400;28;20266;-60
2023/05/30 03:28:10;;;;;;;4.95;2.28;;;;;;;16.19;43.45;100583.56;5077277;28;20206;-61
2023/05/30 03:30:38;;;;;;;5.47;1.75;;;;;;;16.13;43.89;100594.16;5080344;28;20196;-66
2023/05/30 03:33:06;;;;;;;3.08;1.70;;;;;;;15.97;43.84;100603.19;5087541;28;20258;-62
2023/05/30 03:35:34;;;;;;;5.93;2.05;;;;;;;15.78;45.14;100603.66;5082401;28;20196;-60
2023/05/30 03:38:03;;;;;;;5.22;1.75;;;;;;;15.65;45.80;100608.31;5076667;28;20560;-61
2023/05/30 03:40:31;;;;;;;4.70;1.88;;;;;;;15.62;45.59;100617.88;5087991;28;20211;-61
2023/05/30 03:43:00;;;;;;;3.40;2.05;;;;;;;15.54;45.61;100617.16;5089783;28;20208;-61
2023/05/30 03:45:28;;;;;;;3.38;1.77;;;;;;;15.38;46.21;100612.31;5072237;28;20300;-62
2023/05/30 03:47:56;;;;;;;3.92;2.05;;;;;;;15.25;46.68;100610.91;5080757;28;20209;-61
2023/05/30 03:50:24;;;;;;;2.92;1.83;;;;;;;15.17;47.41;100617.97;5068116;28;20205;-60
2023/05/30 03:52:51;;;;;;;4.95;2.00;;;;;;;15.16;47.21;100624.06;5088239;28;20216;-61
2023/05/30 03:55:20;;;;;;;4.05;1.90;;;;;;;15.07;47.76;100624.28;5085658;28;20203;-62
2023/05/30 03:57:48;;;;;;;5.22;1.65;;;;;;;14.93;48.48;100612.41;5087574;28;20655;-61
2023/05/30 04:00:18;;;;;;;5.00;2.20;;;;;;;14.86;48.61;100622.97;5085360;28;20540;-61
2023/05/30 04:02:46;;;;;;;6.20;2.05;;;;;;;14.77;49.08;100626.59;5090461;28;20231;-62
2023/05/30 04:05:14;;;;;;;5.95;2.33;;;;;;;14.72;49.11;100629.25;5075641;28;20690;-63
2023/05/30 04:07:42;;;;;;;5.40;2.28;;;;;;;14.71;49.14;100626.72;5086436;28;20325;-62
2023/05/30 04:10:10;;;;;;;5.07;2.20;;;;;;;14.75;49.45;100636.13;5085795;28;20200;-60
2023/05/30 04:12:38;;;;;;;7.10;2.30;;;;;;;14.80;49.56;100639.53;5082180;28;20288;-62
2023/05/30 04:15:09;;;;;;;4.57;1.97;;;;;;;14.87;48.99;100641.06;5082222;28;20201;-61
2023/05/30 04:17:38;;;;;;;7.55;2.40;;;;;;;14.94;49.47;100647.00;5082629;28;20250;-63
2023/05/30 04:20:08;;;;;;;8.98;2.35;;;;;;;15.05;48.71;100654.59;5087800;28;20299;-63
2023/05/30 04:22:36;;;;;;;5.32;2.00;;;;;;;15.07;48.95;100653.66;5088450;28;20646;-62
2023/05/30 04:25:05;;;;;;;6.13;2.58;;;;;;;15.09;49.53;100654.47;5092209;28;20200;-63
2023/05/30 04:27:34;;;;;;;7.60;2.03;;;;;;;15.16;48.93;100653.47;5093778;28;20258;-61
2023/05/30 04:30:03;;;;;;;5.70;1.98;;;;;;;15.29;48.94;100659.28;5086582;28;20204;-61
2023/05/30 04:32:33;;;;;;;7.07;2.38;;;;;;;15.46;48.47;100656.31;5093251;28;20255;-61
2023/05/30 04:35:04;;;;;;;9.07;2.05;;;;;;;15.60;48.45;100661.19;5092475;28;20304;-61
2023/05/30 04:37:33;;;;;;;4.60;2.15;;;;;;;15.75;48.09;100653.09;5083941;28;20201;-61
2023/05/30 04:40:03;;;;;;;6.57;2.05;;;;;;;15.85;47.42;100662.38;5091944;28;20247;-62
2023/05/30 04:42:33;;;;;;;4.03;2.25;;;;;;;15.89;47.13;100658.81;5085685;28;20205;-63
2023/05/30 04:45:04;;;;;;;7.95;2.50;;;;;;;15.92;47.51;100669.16;5086636;28;20200;-61
2023/05/30 04:47:33;;;;;;;5.05;1.80;;;;;;;15.96;47.12;100662.13;5074947;28;20580;-62
2023/05/30 04:50:03;;;;;;;4.63;1.73;;;;;;;16.01;47.77;100664.63;5094462;28;20216;-62
2023/05/30 04:52:31;;;;;;;6.28;1.80;;;;;;;16.14;47.09;100664.28;5092311;28;20201;-61
2023/05/30 04:54:59;;;;;;;10.07;2.10;;;;;;;16.16;46.79;100665.13;5093141;28;20226;-60
2023/05/30 04:57:27;;;;;;;5.78;2.10;;;;;;;16.10;46.92;100665.25;5073018;28;20288;-61
2023/05/30 04:59:55;;;;;;;6.07;2.15;;;;;;;16.01;47.28;100667.22;5090522;28;20219;-60
2023/05/30 05:02:23;;;;;;;8.68;2.22;;;;;;;15.99;47.73;100669.00;5080786;28;20671;-61
2023/05/30 05:04:51;;;;;;;9.65;2.40;;;;;;;16.16;48.35;100666.84;5090164;28;20224;-61
2023/05/30 05:07:20;;;;;;;6.18;2.17;;;;;;;16.40;47.92;100667.97;5091982;28;20220;-61
2023/05/30 05:10:07;;;;;;;7.70;2.10;;;;;;;16.68;46.62;100668.13;5070233;28;20650;-62
2023/05/30 05:12:35;;;;;;;5.43;2.33;;;;;;;16.81;46.00;100676.47;5087953;28;20201;-61
2023/05/30 05:15:03;;;;;;;8.23;2.30;;;;;;;16.96;45.71;100683.84;5082615;28;20219;-61
2023/05/30 05:17:31;;;;;;;5.60;2.10;;;;;;;17.18;45.37;100686.72;5080724;28;20201;-61
2023/05/30 05:20:00;;;;;;;5.85;2.00;;;;;;;17.33;44.79;100675.84;5090000;28;20689;-61
2023/05/30 05:22:33;;;;;;;8.23;2.30;;;;;;;17.50;44.52;100682.31;5085197;28;20217;-62
2023/05/30 05:25:01;;;;;;;10.30;2.60;;;;;;;17.78;44.01;100683.19;5085812;28;20205;-62
2023/05/30 05:27:29;;;;;;;7.00;2.17;;;;;;;18.14;43.43;100684.69;5090987;28;20223;-61
2023/05/30 05:29:57;;;;;;;6.35;2.17;;;;;;;18.41;42.14;100689.03;5082503;28;20295;-61
2023/05/30 05:32:25;;;;;;;6.53;2.20;;;;;;;18.52;41.85;100694.72;5087884;28;20232;-62
2023/05/30 05:34:53;;;;;;;5.93;2.03;;;;;;;18.62;42.29;100697.84;5073779;28;20201;-62
2023/05/30 05:37:21;;;;;;;5.63;2.35;;;;;;;18.90;41.59;100697.78;5080318;28;20212;-66
2023/05/30 05:39:51;;;;;;;4.65;2.08;;;;;;;19.14;40.60;100692.59;5089738;28;20227;-61
2023/05/30 05:42:19;;;;;;;4.68;1.75;;;;;;;19.33;39.91;100687.53;5079019;28;20208;-63
2023/05/30 05:44:46;;;;;;;6.57;1.85;;;;;;;19.45;40.04;100700.16;5091860;28;20204;-61
2023/05/30 05:47:14;;;;;;;3.67;1.80;;;;;;;19.55;39.92;100696.25;5076265;28;20695;-61
2023/05/30 05:49:42;;;;;;;6.07;2.17;;;;;;;19.52;39.38;100696.41;5068004;28;20695;-60
2023/05/30 05:52:10;;;;;;;9.57;1.80;;;;;;;19.50;39.11;100703.44;5085666;28;20204;-62
2023/05/30 05:54:38;;;;;;;4.28;1.77;;;;;;;19.45;39.53;100701.00;5087186;28;20647;-62
2023/05/30 05:57:08;;;;;;;6.47;1.80;;;;;;;19.66;39.47;100699.38;5075776;28;20217;-62
2023/05/30 05:59:35;;;;;;;7.30;2.42;;;;;;;19.83;38.90;100696.06;5078279;28;20193;-62
2023/05/30 06:02:04;;;;;;;4.28;1.90;;;;;;;19.92;38.83;100700.06;5086144;28;20197;-61
2023/05/30 06:04:32;;;;;;;7.68;1.98;;;;;;;20.03;38.75;100705.75;5086933;28;20236;-62
2023/05/30 06:07:00;;;;;;;4.57;1.77;;;;;;;20.14;37.89;100711.41;5084475;28;20685;-63
2023/05/30 06:09:31;;;;;;;3.75;1.67;;;;;;;20.23;37.53;100707.56;5081486;28;20197;-61
2023/05/30 06:12:00;;;;;;;7.15;2.00;;;;;;;20.33;37.30;100708.03;5086985;28;20667;-61
2023/05/30 06:14:29;;;;;;;5.82;1.70;;;;;;;20.48;37.42;100704.78;5081756;28;20197;-61
2023/05/30 06:16:57;;;;;;;5.07;2.22;;;;;;;20.72;36.86;100713.38;5080051;28;20199;-62
2023/05/30 06:19:25;;;;;;;3.80;1.60;;;;;;;20.79;36.21;100711.34;5088699;28;20196;-60
2023/05/30 06:21:53;;;;;;;7.47;2.00;;;;;;;20.88;35.65;100703.97;5088933;28;20212;-61
2023/05/30 06:24:21;;;;;;;6.57;2.08;;;;;;;20.86;35.46;100710.16;5084827;28;20205;-62
2023/05/30 06:26:49;;;;;;;7.93;2.03;;;;;;;20.98;35.61;100710.47;5084055;28;20208;-62
2023/05/30 06:29:17;;;;;;;7.22;2.17;;;;;;;21.17;35.03;100705.28;5083551;28;20216;-63
2023/05/30 06:31:46;;;;;;;3.85;1.83;;;;;;;21.32;34.73;100713.34;5086349;28;20217;-61
2023/05/30 06:34:15;;;;;;;6.38;1.73;;;;;;;21.52;34.31;100715.97;5076092;28;20224;-61
2023/05/30 06:36:43;;;;;;;6.57;1.90;;;;;;;21.62;33.39;100719.84;5091292;28;20726;-61
2023/05/30 06:39:15;;;;;;;2.50;1.50;;;;;;;21.71;33.31;100719.41;5091018;28;20655;-62
2023/05/30 06:41:43;;;;;;;5.63;1.80;;;;;;;21.82;32.90;100723.31;5088110;28;20305;-63
2023/05/30 06:44:12;;;;;;;3.72;1.67;;;;;;;22.01;32.88;100729.38;5089000;28;20652;-67
2023/05/30 06:46:40;;;;;;;4.47;1.80;;;;;;;22.21;32.34;100724.97;5080265;28;20651;-62
2023/05/30 06:49:09;;;;;;;4.22;1.63;;;;;;;22.30;32.17;100727.13;5073028;28;20664;-60
2023/05/30 06:51:37;;;;;;;7.57;1.75;;;;;;;22.41;32.41;100732.72;5085548;28;20200;-60
2023/05/30 06:54:05;;;;;;;6.55;2.45;;;;;;;22.53;31.55;100721.56;5074682;28;20216;-61
2023/05/30 06:56:33;;;;;;;4.25;1.63;;;;;;;22.66;30.99;100730.56;5077464;28;20208;-61
2023/05/30 06:59:01;;;;;;;5.53;1.70;;;;;;;22.83;29.07;100734.09;5079287;28;20201;-61
2023/05/30 07:01:29;;;;;;;3.70;1.48;;;;;;;22.92;28.60;100730.19;5084552;28;20193;-61
2023/05/30 07:03:57;;;;;;;3.58;1.52;;;;;;;23.04;28.10;100722.47;5086519;28;20722;-65
2023/05/30 07:06:27;;;;;;;2.15;1.50;;;;;;;23.14;28.01;100718.44;5075109;28;20204;-62
2023/05/30 07:08:55;;;;;;;4.25;2.00;;;;;;;23.11;28.50;100715.13;5068562;28;20693;-60
2023/05/30 07:11:23;;;;;;;4.53;1.77;;;;;;;23.14;28.65;100722.84;5077967;28;20618;-60
2023/05/30 07:13:51;;;;;;;5.45;1.35;;;;;;;23.42;28.90;100719.63;5068456;28;20211;-63
2023/05/30 07:16:19;;;;;;;6.25;1.73;;;;;;;23.92;28.54;100715.97;5084403;28;20554;-61
2023/05/30 07:18:47;;;;;;;5.95;1.50;;;;;;;24.35;28.12;100713.53;5081311;28;20192;-60
2023/05/30 07:21:29;;;;;;;5.80;1.77;;;;;;;24.40;27.84;100727.28;5086241;28;20690;-61
2023/05/30 07:23:57;;;;;;;2.42;1.60;;;;;;;24.25;28.31;100722.88;5078467;28;20208;-64
2023/05/30 07:26:25;;;;;;;6.65;2.03;;;;;;;24.22;28.38;100728.31;5064953;28;20217;-59
2023/05/30 07:28:53;;;;;;;3.80;1.77;;;;;;;24.41;28.43;100723.72;5079691;28;20216;-60
2023/05/30 07:31:21;;;;;;;9.50;1.88;;;;;;;24.55;27.72;100718.50;5078082;28;20197;-61
2023/05/30 07:33:49;;;;;;;4.90;1.95;;;;;;;24.75;28.07;100714.69;5071721;28;20272;-59
2023/05/30 07:36:17;;;;;;;4.78;1.65;;;;;;;24.86;27.46;100719.31;5080734;28;20211;-58
2023/05/30 07:38:47;;;;;;;4.75;1.92;;;;;;;24.76;28.03;100723.44;5073555;28;20288;-61
2023/05/30 07:41:15;;;;;;;4.07;1.60;;;;;;;24.73;27.24;100708.66;5078035;28;20204;-60
2023/05/30 07:43:43;;;;;;;4.60;1.50;;;;;;;24.66;26.80;100722.28;5082457;28;20200;-60
2023/05/30 07:46:11;;;;;;;6.18;1.75;;;;;;;24.56;26.48;100728.13;5081779;28;20207;-60
2023/05/30 07:48:40;;;;;;;2.22;1.35;;;;;;;24.34;26.98;100717.94;5079574;28;20238;-63
2023/05/30 07:51:09;;;;;;;3.97;1.60;;;;;;;24.11;27.84;100719.25;5078675;28;20196;-61
2023/05/30 07:53:37;;;;;;;6.15;2.20;;;;;;;23.66;28.00;100725.28;5081053;28;20204;-61
2023/05/30 07:56:07;;;;;;;2.63;1.48;;;;;;;23.07;28.75;100726.75;5072300;28;20207;-62
2023/05/30 07:58:45;;;;;;;5.68;1.67;;;;;;;22.63;29.56;100730.69;5071959;28;20209;-62
2023/05/30 08:01:29;;;;;;;5.57;1.52;;;;;;;22.27;30.68;100736.00;5076227;28;20210;-64
2023/05/30 08:04:25;;;;;;;6.78;1.92;;;;;;;22.01;31.50;100737.25;5003293;28;20595;-64
2023/05/30 08:06:58;;;;;;;4.90;1.67;;;;;;;21.83;31.45;100735.50;5078655;28;20208;-64
2023/05/30 08:09:32;;;;;;;3.08;1.73;;;;;;;21.65;31.41;100732.84;5065435;28;20221;-63
2023/05/30 08:12:28;;;;;;;3.38;1.50;;;;;;;21.50;31.25;100741.38;5069450;28;20258;-60
2023/05/30 08:15:04;;;;;;;2.97;1.33;;;;;;;21.31;31.09;100725.59;5081636;28;20205;-61
2023/05/30 08:17:33;;;;;;;3.83;1.42;;;;;;;21.23;31.53;100727.72;5083216;28;20197;-62
2023/05/30 08:20:13;;;;;;;4.47;1.40;;;;;;;21.16;31.20;100735.00;5079809;28;20207;-61
2023/05/30 08:22:43;;;;;;;5.22;1.83;;;;;;;21.09;31.77;100728.34;5071950;28;20205;-62
2023/05/30 08:25:11;;;;;;;4.93;1.50;;;;;;;21.07;31.19;100735.44;5088623;28;20227;-62
2023/05/30 08:27:42;;;;;;;4.95;1.60;;;;;;;21.03;30.21;100741.72;5085880;28;20205;-62
2023/05/30 08:30:11;;;;;;;6.72;1.60;;;;;;;20.98;30.69;100741.91;5072941;28;20197;-61
2023/05/30 08:32:40;;;;;;;5.68;1.50;;;;;;;20.99;30.62;100745.41;5076270;28;20232;-60
2023/05/30 08:35:09;;;;;;;3.85;1.73;;;;;;;20.95;30.51;100736.81;5062430;28;20202;-59
2023/05/30 08:37:37;;;;;;;3.55;1.33;;;;;;;20.94;31.16;100739.50;5083836;28;20631;-60
2023/05/30 08:40:07;;;;;;;6.47;1.52;;;;;;;20.98;31.09;100743.69;5074727;28;20201;-60
2023/05/30 08:42:35;;;;;;;4.97;2.08;;;;;;;21.04;30.97;100738.19;5082938;28;20211;-61
2023/05/30 08:45:05;;;;;;;2.72;1.60;;;;;;;21.08;31.00;100742.38;5077709;28;20204;-63
2023/05/30 08:47:34;;;;;;;3.80;1.52;;;;;;;21.11;30.98;100741.38;5091941;28;20205;-61
2023/05/30 08:50:04;;;;;;;3.45;1.50;;;;;;;21.07;30.18;100748.53;5086028;28;20209;-62
2023/05/30 08:52:33;;;;;;;3.08;1.30;;;;;;;21.02;30.60;100744.41;5080869;28;20945;-61
2023/05/30 08:55:07;;;;;;;5.72;1.48;;;;;;;20.98;30.65;100746.31;5086417;28;20196;-61
2023/05/30 08:57:40;;;;;;;3.72;1.98;;;;;;;20.96;30.61;100742.91;5081098;28;20681;-61
2023/05/30 09:00:14;;;;;;;5.43;1.13;;;;;;;20.92;30.54;100757.06;5082597;28;20206;-60
2023/05/30 09:02:44;;;;;;;4.45;1.50;;;;;;;20.85;30.51;100748.63;5085450;28;20696;-62
2023/05/30 09:05:14;;;;;;;4.47;1.70;;;;;;;20.82;30.70;100750.50;5080150;28;20712;-61
2023/05/30 09:07:44;;;;;;;4.72;1.48;;;;;;;20.81;31.03;100760.16;5070610;28;20204;-62
2023/05/30 09:10:13;;;;;;;2.53;1.35;;;;;;;20.84;30.95;100764.38;5078813;28;20270;-60
2023/05/30 09:12:42;;;;;;;4.28;1.58;;;;;;;20.89;30.35;100762.44;5089357;28;20235;-59
2023/05/30 09:15:10;;;;;;;3.60;1.35;;;;;;;20.86;30.71;100757.31;5088896;28;20200;-61
2023/05/30 09:17:39;;;;;;;2.03;1.40;;;;;;;20.89;30.92;100757.19;5088185;28;20196;-61
2023/05/30 09:20:08;;;;;;;2.63;1.48;;;;;;;20.94;30.99;100763.06;5087517;28;20197;-61
2023/05/30 09:22:37;;;;;;;5.55;1.35;;;;;;;20.99;30.97;100761.13;5080840;28;20660;-61
2023/05/30 09:25:06;;;;;;;2.28;1.20;;;;;;;21.00;30.42;100765.44;5088606;28;20212;-61
2023/05/30 09:27:36;;;;;;;4.07;1.50;;;;;;;21.00;30.79;100760.19;5089060;28;20559;-60
2023/05/30 09:30:09;;;;;;;3.90;1.65;;;;;;;21.07;30.56;100759.03;5083044;28;20255;-62
2023/05/30 09:32:38;;;;;;;3.35;1.38;;;;;;;21.15;30.43;100758.69;5081835;28;20236;-61
2023/05/30 09:35:09;;;;;;;7.43;1.55;;;;;;;21.23;30.42;100765.28;5078651;28;20293;-60
2023/05/30 09:37:38;;;;;;;5.07;1.55;;;;;;;21.33;30.18;100757.91;5077934;28;20334;-60
2023/05/30 09:40:09;;;;;;;3.15;1.63;;;;;;;21.38;30.23;100770.78;5077977;28;20228;-61
2023/05/30 09:42:42;;;;;;;4.93;1.70;;;;;;;21.42;29.72;100769.72;5068046;28;20724;-63
2023/05/30 09:45:11;;;;;;;4.63;1.60;;;;;;;21.37;29.89;100764.69;5076678;28;20197;-61
2023/05/30 09:47:42;;;;;;;4.10;1.60;;;;;;;21.34;29.70;100759.59;5085749;28;20296;-62
2023/05/30 09:50:12;;;;;;;4.90;1.60;;;;;;;21.30;29.75;100758.00;5079428;28;20213;-61
2023/05/30 09:52:41;;;;;;;4.90;1.60;;;;;;;21.30;30.24;100767.63;5080875;28;20986;-62
2023/05/30 09:55:10;;;;;;;5.10;1.80;;;;;;;21.35;29.93;100768.31;5083487;28;20200;-62
2023/05/30 09:57:40;;;;;;;5.53;1.40;;;;;;;21.44;29.82;100765.28;5084782;28;20205;-66
2023/05/30 10:00:11;;;;;;;3.50;1.40;;;;;;;21.51;29.65;100768.47;5085721;28;20287;-64
2023/05/30 10:02:42;;;;;;;7.50;1.90;;;;;;;21.61;29.23;100767.97;5077995;28;20209;-59
2023/05/30 10:05:19;;;;;;;4.38;1.45;;;;;;;21.68;28.78;100766.75;5085364;28;20901;-60
2023/05/30 10:07:49;;;;;;;6.40;1.60;;;;;;;21.79;29.18;100768.03;5085633;28;20208;-65
2023/05/30 10:10:17;;;;;;;3.70;1.65;;;;;;;21.85;28.94;100760.75;5082206;28;20228;-64
2023/05/30 10:12:49;;;;;;;2.45;1.42;;;;;;;21.98;28.84;100762.78;5078599;28;20299;-65
2023/05/30 10:15:18;;;;;;;4.60;1.73;;;;;;;22.13;28.98;100752.41;5076352;28;20232;-64
2023/05/30 10:17:50;;;;;;;3.10;1.48;;;;;;;22.38;27.88;100759.97;5088540;28;20288;-65
2023/05/30 10:20:22;;;;;;;6.35;1.63;;;;;;;22.53;27.42;100755.72;5091570;28;20596;-64
2023/05/30 10:22:52;;;;;;;4.00;1.40;;;;;;;22.67;26.88;100761.13;5085387;28;20201;-64
2023/05/30 10:25:22;;;;;;;4.07;1.70;;;;;;;22.73;26.82;100764.41;5087861;28;20201;-65
2023/05/30 10:27:54;;;;;;;2.38;1.38;;;;;;;22.76;26.94;100759.00;5076700;28;20208;-63
2023/05/30 10:30:24;;;;;;;6.28;1.70;;;;;;;23.01;26.44;100767.31;5076149;28;20595;-66
2023/05/30 10:33:03;;;;;;;2.92;1.55;;;;;;;23.18;25.85;100755.09;5087737;28;20610;-64
2023/05/30 10:35:33;;;;;;;6.63;1.60;;;;;;;23.48;25.00;100758.72;5076869;28;20207;-64
2023/05/30 10:38:05;;;;;;;3.22;1.40;;;;;;;23.76;25.33;100763.38;5090293;28;20250;-64
2023/05/30 10:40:40;;;;;;;2.45;1.27;;;;;;;24.09;25.15;100759.78;5082234;28;20200;-63
2023/05/30 10:43:30;;;;;;;2.90;1.50;;;;;;;24.50;24.18;100761.88;5090318;28;20328;-63
2023/05/30 10:46:11;;;;;;;4.30;1.60;;;;;;;24.96;23.06;100761.78;5081817;28;20205;-63
2023/05/30 10:48:51;;;;;;;2.88;1.13;;;;;;;25.18;21.12;100756.91;5090508;28;20201;-63
2023/05/30 10:51:20;;;;;;;2.03;1.38;;;;;;;25.37;21.10;100750.50;5086335;28;20212;-62
2023/05/30 10:53:49;;;;;;;3.03;1.60;;;;;;;25.69;21.44;100745.84;5087794;28;20201;-64
2023/05/30 10:56:41;;;;;;;3.63;1.63;;;;;;;26.19;21.44;100752.34;5081569;28;20235;-62
2023/05/30 10:59:14;;;;;;;5.35;1.50;;;;;;;26.52;20.00;100751.09;5082669;28;20560;-63
2023/05/30 11:01:42;;;;;;;3.22;1.20;;;;;;;26.49;19.34;100763.56;5087083;28;20205;-62
2023/05/30 11:04:12;;;;;;;2.08;1.33;;;;;;;26.66;19.65;100756.31;5086648;28;20277;-63
2023/05/30 11:06:44;;;;;;;5.68;1.63;;;;;;;26.87;20.08;100757.47;5087601;28;20674;-62
2023/05/30 11:09:14;;;;;;;3.83;1.60;;;;;;;26.91;19.59;100753.66;5074444;28;20571;-64
2023/05/30 11:11:43;;;;;;;2.78;1.50;;;;;;;26.93;19.04;100746.47;5087561;28;20200;-63
2023/05/30 11:14:12;;;;;;;7.18;1.48;;;;;;;26.83;18.61;100745.41;5080338;28;20201;-62
2023/05/30 11:16:50;;;;;;;3.08;1.17;;;;;;;26.75;19.00;100739.81;5087801;28;20207;-64
2023/05/30 11:19:20;;;;;;;3.28;1.25;;;;;;;26.82;18.78;100748.19;5085727;28;20196;-63
2023/05/30 11:22:01;;;;;;;2.97;1.35;;;;;;;26.89;18.95;100755.59;5075443;28;20625;-63
2023/05/30 11:24:31;;;;;;;5.47;1.45;;;;;;;26.94;18.90;100758.75;5087203;28;20249;-64
2023/05/30 11:27:01;;;;;;;2.47;1.30;;;;;;;27.12;18.96;100755.81;5088463;28;20200;-64
2023/05/30 11:29:35;;;;;;;2.40;1.27;;;;;;;27.34;18.54;100748.06;5074902;28;20720;-63
2023/05/30 11:32:05;;;;;;;2.45;1.30;;;;;;;27.54;17.70;100745.81;5060308;28;20277;-62
2023/05/30 11:34:35;;;;;;;3.22;1.50;;;;;;;27.72;17.72;100747.13;5076182;28;20287;-63
2023/05/30 11:37:03;;;;;;;2.25;1.60;;;;;;;27.84;18.14;100753.41;5079652;28;20726;-61